Time;durP1;ratioP1;P1;durP2;ratioP2;P2;SDS_P1;SDS_P2;PMS_P1;PMS_P2;Temp;Humidity;BMP_temperature;BMP_pressure;BME280_temperature;BME280_humidity;BME280_pressure;Samples;Min_cycle;Max_cycle;Signal;HPM_P1;HPM_P2
2021/09/19 00:01:13;;;;;;;22.63;17.63;;;17.00;99.90;;;;;;4995719;28;20225;-77
2021/09/19 00:03:39;;;;;;;21.10;18.15;;;17.00;99.90;;;;;;4995699;28;20173;-76
2021/09/19 00:06:05;;;;;;;22.27;17.17;;;17.00;99.90;;;;;;4995819;28;20212;-76
2021/09/19 00:08:31;;;;;;;22.45;16.70;;;17.20;99.90;;;;;;4995406;28;20173;-76
2021/09/19 00:10:57;;;;;;;21.70;16.58;;;17.10;99.90;;;;;;4995472;28;20181;-76
2021/09/19 00:13:23;;;;;;;22.05;17.35;;;17.10;99.90;;;;;;4995729;28;20236;-76
2021/09/19 00:15:49;;;;;;;21.48;17.38;;;17.10;99.90;;;;;;4995717;28;20173;-76
2021/09/19 00:18:17;;;;;;;19.88;17.30;;;17.10;99.90;;;;;;4995322;28;20638;-76
2021/09/19 00:20:43;;;;;;;18.88;16.88;;;17.10;99.90;;;;;;4995272;28;20208;-76
2021/09/19 00:23:09;;;;;;;19.83;17.63;;;17.20;99.90;;;;;;4995314;28;20265;-76
2021/09/19 00:25:35;;;;;;;21.00;17.98;;;17.30;99.90;;;;;;4995380;28;20269;-76
2021/09/19 00:28:01;;;;;;;24.10;17.80;;;17.30;99.90;;;;;;4994786;28;20177;-76
2021/09/19 00:30:27;;;;;;;26.58;17.73;;;17.10;99.90;;;;;;4995141;28;20196;-76
2021/09/19 00:32:53;;;;;;;19.88;17.75;;;17.10;99.90;;;;;;4994086;28;20197;-76
2021/09/19 00:35:18;;;;;;;26.80;18.63;;;17.10;99.90;;;;;;4994915;28;20200;-76
2021/09/19 00:37:44;;;;;;;21.80;18.40;;;17.10;99.90;;;;;;4995121;28;20169;-76
2021/09/19 00:40:10;;;;;;;23.58;18.00;;;17.20;99.90;;;;;;4994839;28;20172;-76
2021/09/19 00:42:36;;;;;;;26.10;18.48;;;17.10;99.90;;;;;;4995183;28;20252;-77
2021/09/19 00:45:12;;;;;;;26.42;18.15;;;16.90;99.90;;;;;;4995039;28;20173;-76
2021/09/19 00:47:39;;;;;;;29.83;19.17;;;16.80;99.90;;;;;;4995302;28;20169;-76
2021/09/19 00:50:06;;;;;;;22.48;18.10;;;16.80;99.90;;;;;;4994989;28;20172;-76
2021/09/19 00:52:32;;;;;;;24.75;18.42;;;16.80;99.90;;;;;;4994911;28;20197;-76
2021/09/19 00:55:00;;;;;;;25.02;19.10;;;16.90;99.90;;;;;;4995158;28;20165;-76
2021/09/19 00:57:27;;;;;;;23.80;18.83;;;16.80;99.90;;;;;;4994931;28;20177;-76
2021/09/19 00:59:53;;;;;;;21.42;18.23;;;16.80;99.90;;;;;;4994713;28;20176;-76
2021/09/19 01:02:20;;;;;;;27.23;19.20;;;16.80;99.90;;;;;;4994725;28;20173;-76
2021/09/19 01:04:47;;;;;;;23.33;18.33;;;16.70;99.90;;;;;;4994656;28;20196;-76
2021/09/19 01:07:16;;;;;;;20.65;17.65;;;16.80;99.90;;;;;;4994670;28;20185;-77
2021/09/19 01:09:42;;;;;;;24.20;18.60;;;16.70;99.90;;;;;;4994365;28;20169;-76
2021/09/19 01:12:10;;;;;;;26.75;18.25;;;16.70;99.90;;;;;;4994402;28;20672;-76
2021/09/19 01:14:38;;;;;;;28.08;19.98;;;16.70;99.90;;;;;;4994440;28;20216;-76
2021/09/19 01:17:08;;;;;;;20.77;18.17;;;16.80;99.90;;;;;;4994040;28;20165;-76
2021/09/19 01:19:35;;;;;;;22.77;18.35;;;16.70;99.90;;;;;;4994630;28;20637;-76
2021/09/19 01:22:02;;;;;;;21.15;18.23;;;16.80;99.90;;;;;;4994883;28;20189;-76
2021/09/19 01:24:28;;;;;;;21.95;17.45;;;16.70;99.90;;;;;;4993612;28;20170;-77
2021/09/19 01:26:54;;;;;;;19.73;17.58;;;16.80;99.90;;;;;;4993589;28;20245;-76
2021/09/19 01:29:21;;;;;;;25.58;18.58;;;16.70;99.90;;;;;;4994707;28;20181;-76
2021/09/19 01:31:47;;;;;;;21.27;18.15;;;16.80;99.90;;;;;;4994467;28;20185;-76
2021/09/19 01:34:13;;;;;;;24.00;17.75;;;16.70;99.90;;;;;;4995106;28;20235;-76
2021/09/19 01:36:40;;;;;;;21.98;17.50;;;16.60;99.90;;;;;;4994778;28;20208;-76
2021/09/19 01:39:07;;;;;;;22.55;17.45;;;16.50;99.90;;;;;;4993901;28;20181;-76
2021/09/19 01:41:35;;;;;;;20.65;18.45;;;16.50;99.90;;;;;;4993140;28;20193;-76
2021/09/19 01:44:01;;;;;;;21.38;18.77;;;16.60;99.90;;;;;;4996529;28;20169;-76
2021/09/19 01:46:27;;;;;;;21.20;18.42;;;16.70;99.90;;;;;;4995221;28;20523;-78
2021/09/19 01:48:53;;;;;;;31.85;18.60;;;16.60;99.90;;;;;;4996950;28;20630;-77
2021/09/19 01:51:19;;;;;;;24.52;18.08;;;16.60;99.90;;;;;;4995576;28;20189;-76
2021/09/19 01:53:44;;;;;;;26.05;18.48;;;16.50;99.90;;;;;;4995222;28;20227;-77
2021/09/19 01:56:10;;;;;;;19.05;15.82;;;16.60;99.90;;;;;;4994004;28;20622;-76
2021/09/19 01:58:51;;;;;;;22.67;18.50;;;16.60;99.90;;;;;;4993799;28;20525;-76
2021/09/19 02:01:21;;;;;;;26.75;18.25;;;16.60;99.90;;;;;;4993516;28;20199;-76
2021/09/19 02:03:47;;;;;;;22.30;18.30;;;16.60;99.90;;;;;;4993619;28;20169;-76
2021/09/19 02:06:13;;;;;;;30.52;18.75;;;16.60;99.90;;;;;;4993729;28;20205;-76
2021/09/19 02:08:38;;;;;;;22.83;18.80;;;16.80;99.90;;;;;;4993593;28;20208;-76
2021/09/19 02:11:07;;;;;;;20.77;17.83;;;16.70;99.90;;;;;;4993338;28;20194;-76
2021/09/19 02:13:33;;;;;;;27.30;18.50;;;16.70;99.90;;;;;;4993202;28;20209;-76
2021/09/19 02:15:59;;;;;;;19.30;17.13;;;16.70;99.90;;;;;;4992134;28;20244;-76
2021/09/19 02:18:25;;;;;;;24.05;18.83;;;16.80;99.90;;;;;;4993404;28;20166;-76
2021/09/19 02:20:51;;;;;;;26.67;18.92;;;16.70;99.90;;;;;;4993352;28;20687;-76
2021/09/19 02:23:16;;;;;;;26.45;18.35;;;16.50;99.90;;;;;;4993241;28;20180;-76
2021/09/19 02:25:42;;;;;;;20.45;17.65;;;16.50;99.90;;;;;;4992996;28;20165;-76
2021/09/19 02:28:08;;;;;;;20.52;17.55;;;16.50;99.90;;;;;;4993595;28;20172;-76
2021/09/19 02:30:33;;;;;;;23.02;17.50;;;16.50;99.90;;;;;;4993543;28;20186;-76
2021/09/19 02:32:59;;;;;;;22.40;17.70;;;16.50;99.90;;;;;;4991978;28;20303;-76
2021/09/19 02:35:25;;;;;;;21.60;18.17;;;16.50;99.90;;;;;;4993334;28;20680;-75
2021/09/19 02:37:50;;;;;;;22.52;16.77;;;16.30;99.90;;;;;;4993684;28;20211;-77
2021/09/19 02:40:17;;;;;;;22.40;17.38;;;16.30;99.90;;;;;;4993112;28;20189;-76
2021/09/19 02:42:43;;;;;;;21.50;18.38;;;16.30;99.90;;;;;;4992244;28;20647;-77
2021/09/19 02:45:11;;;;;;;23.98;17.65;;;16.40;99.90;;;;;;4993351;28;20172;-76
2021/09/19 02:47:38;;;;;;;19.75;16.88;;;16.60;99.90;;;;;;4993526;28;20161;-76
2021/09/19 02:50:06;;;;;;;27.77;19.17;;;16.50;99.90;;;;;;4993933;28;20169;-76
2021/09/19 02:52:31;;;;;;;21.08;17.88;;;16.50;99.90;;;;;;4998185;28;20177;-76
2021/09/19 02:54:57;;;;;;;26.35;18.00;;;16.60;99.90;;;;;;4997156;28;20678;-75
2021/09/19 02:57:22;;;;;;;26.45;19.25;;;16.80;99.90;;;;;;4997450;28;20172;-76
2021/09/19 02:59:48;;;;;;;21.77;17.98;;;16.70;99.90;;;;;;4997162;28;20184;-75
2021/09/19 03:02:13;;;;;;;26.50;19.73;;;16.50;99.90;;;;;;4996783;28;20239;-76
2021/09/19 03:07:07;;;;;;;25.85;20.08;;;16.50;99.90;;;;;;4956621;29;20261;-75
2021/09/19 03:09:33;;;;;;;22.25;19.10;;;16.50;99.90;;;;;;4958343;28;20570;-87
2021/09/19 03:11:58;;;;;;;29.73;19.25;;;16.30;99.90;;;;;;4976332;28;20186;-83
2021/09/19 03:14:24;;;;;;;26.70;20.13;;;16.30;99.90;;;;;;4979984;28;20201;-82
2021/09/19 03:16:50;;;;;;;27.83;18.50;;;16.20;99.90;;;;;;4979292;28;20166;-80
2021/09/19 03:19:15;;;;;;;23.80;18.95;;;16.10;99.90;;;;;;4979915;28;20169;-76
2021/09/19 03:21:41;;;;;;;21.17;18.42;;;15.80;99.90;;;;;;4978672;28;20197;-84
2021/09/19 03:24:06;;;;;;;29.00;20.05;;;15.80;99.90;;;;;;4978963;28;20204;-87
2021/09/19 03:26:32;;;;;;;25.70;18.75;;;16.00;99.90;;;;;;4977353;28;20261;-76
2021/09/19 03:28:57;;;;;;;24.83;18.67;;;16.00;99.90;;;;;;4976531;28;20177;-88
2021/09/19 03:31:23;;;;;;;32.50;19.98;;;16.00;99.90;;;;;;4977574;28;20182;-77
2021/09/19 03:33:49;;;;;;;20.90;18.42;;;16.00;99.90;;;;;;4977591;28;20674;-75
2021/09/19 03:36:14;;;;;;;25.23;19.15;;;16.20;99.90;;;;;;4977486;28;20210;-75
2021/09/19 03:38:40;;;;;;;25.77;19.73;;;16.30;99.90;;;;;;4977018;28;20216;-75
2021/09/19 03:41:06;;;;;;;23.52;18.88;;;16.40;99.90;;;;;;4976945;28;20642;-75
2021/09/19 03:43:32;;;;;;;28.20;19.63;;;16.10;99.90;;;;;;4977168;28;20174;-75
2021/09/19 03:45:57;;;;;;;28.35;19.13;;;16.10;99.90;;;;;;4976656;28;20173;-75
2021/09/19 03:48:23;;;;;;;26.50;19.58;;;16.00;99.90;;;;;;4976827;28;20181;-77
2021/09/19 03:50:49;;;;;;;27.25;18.75;;;16.00;99.90;;;;;;4976396;28;20193;-75
2021/09/19 03:53:15;;;;;;;23.17;19.52;;;15.90;99.90;;;;;;4976662;28;20210;-76
2021/09/19 03:55:41;;;;;;;24.80;17.40;;;15.70;99.90;;;;;;4976796;28;20171;-76
2021/09/19 03:58:06;;;;;;;28.92;18.90;;;15.60;99.90;;;;;;4976714;28;20635;-75
2021/09/19 04:00:32;;;;;;;25.00;19.50;;;15.60;99.90;;;;;;4976609;28;20202;-75
2021/09/19 04:02:57;;;;;;;26.10;19.48;;;15.60;99.90;;;;;;4975407;28;20248;-76
2021/09/19 04:05:23;;;;;;;30.67;20.08;;;15.70;99.90;;;;;;4976623;28;20186;-76
2021/09/19 04:07:49;;;;;;;25.15;19.67;;;15.70;99.90;;;;;;4976955;28;20266;-77
2021/09/19 04:10:14;;;;;;;27.90;19.60;;;15.70;99.90;;;;;;4976483;28;20198;-76
2021/09/19 04:12:41;;;;;;;29.60;20.08;;;15.80;99.90;;;;;;4976671;28;20245;-75
2021/09/19 04:15:07;;;;;;;23.90;18.90;;;15.70;99.90;;;;;;4976472;28;20173;-75
2021/09/19 04:17:33;;;;;;;27.92;18.90;;;15.60;99.90;;;;;;4976917;28;20166;-76
2021/09/19 04:19:59;;;;;;;29.20;20.58;;;15.60;99.90;;;;;;4976736;28;20534;-89
2021/09/19 04:22:25;;;;;;;29.33;20.15;;;15.60;99.90;;;;;;4976325;28;20170;-75
2021/09/19 04:24:52;;;;;;;24.92;19.38;;;15.60;99.90;;;;;;4976435;28;20633;-76
2021/09/19 04:27:18;;;;;;;25.50;19.30;;;15.60;99.90;;;;;;4976583;28;20174;-77
2021/09/19 04:29:44;;;;;;;23.67;18.45;;;15.60;99.90;;;;;;4976098;28;20525;-76
2021/09/19 04:32:10;;;;;;;30.65;19.38;;;15.60;99.90;;;;;;4976176;28;20642;-77
2021/09/19 04:34:35;;;;;;;24.98;18.20;;;15.40;99.90;;;;;;4976931;28;20300;-76
2021/09/19 04:37:01;;;;;;;24.50;19.33;;;15.30;99.90;;;;;;4977641;28;20201;-77
2021/09/19 04:39:27;;;;;;;25.05;19.77;;;15.40;99.90;;;;;;4978360;28;20578;-76
2021/09/19 04:41:52;;;;;;;25.48;19.45;;;15.30;99.90;;;;;;4977118;28;20197;-76
2021/09/19 04:44:18;;;;;;;26.33;20.42;;;15.30;99.90;;;;;;4976769;28;20542;-76
2021/09/19 04:46:44;;;;;;;26.63;19.80;;;15.40;99.90;;;;;;4975800;28;20207;-75
2021/09/19 04:49:09;;;;;;;26.02;19.90;;;15.50;99.90;;;;;;4975830;28;20158;-77
2021/09/19 04:51:35;;;;;;;25.52;18.98;;;15.30;99.90;;;;;;4975663;28;20217;-74
2021/09/19 04:54:01;;;;;;;25.58;19.50;;;15.20;99.90;;;;;;4975459;28;20670;-75
2021/09/19 04:56:27;;;;;;;30.58;19.35;;;15.20;99.90;;;;;;4974046;28;20170;-75
2021/09/19 04:58:52;;;;;;;28.08;20.17;;;15.30;99.90;;;;;;4975742;28;20180;-75
2021/09/19 05:01:18;;;;;;;22.48;19.35;;;15.40;99.90;;;;;;4975416;28;20215;-76
2021/09/19 05:03:44;;;;;;;29.70;18.83;;;15.40;99.90;;;;;;4975765;28;20169;-76
2021/09/19 05:06:10;;;;;;;24.27;18.33;;;15.60;99.90;;;;;;4975522;28;20225;-83
2021/09/19 05:08:35;;;;;;;28.73;20.65;;;15.50;99.90;;;;;;4975775;28;20204;-76
2021/09/19 05:11:01;;;;;;;27.02;19.73;;;15.30;99.90;;;;;;4975933;28;20189;-82
2021/09/19 05:13:28;;;;;;;25.10;19.42;;;15.50;99.90;;;;;;4975718;28;20202;-76
2021/09/19 05:15:54;;;;;;;29.92;18.42;;;15.30;99.90;;;;;;4975414;28;20169;-75
2021/09/19 05:18:19;;;;;;;26.33;19.08;;;15.30;99.90;;;;;;4975715;28;20210;-76
2021/09/19 05:20:45;;;;;;;25.55;20.17;;;15.20;99.90;;;;;;4975443;28;20677;-75
2021/09/19 05:23:11;;;;;;;24.25;19.52;;;15.20;99.90;;;;;;4975794;28;20213;-75
2021/09/19 05:25:37;;;;;;;27.50;20.48;;;15.30;99.90;;;;;;4975211;28;20173;-76
2021/09/19 05:28:03;;;;;;;27.88;19.60;;;15.20;99.90;;;;;;4975362;28;20169;-76
2021/09/19 05:30:28;;;;;;;24.65;18.83;;;15.10;99.90;;;;;;4974853;28;20552;-76
2021/09/19 05:32:54;;;;;;;27.27;19.27;;;15.00;99.90;;;;;;4974885;28;20217;-74
2021/09/19 05:35:20;;;;;;;25.50;19.17;;;15.10;99.90;;;;;;4975121;28;20249;-77
2021/09/19 05:37:45;;;;;;;26.02;18.65;;;15.10;99.90;;;;;;4975201;28;20193;-77
2021/09/19 05:40:13;;;;;;;24.85;19.08;;;15.10;99.90;;;;;;4974971;28;20698;-76
2021/09/19 05:42:38;;;;;;;20.92;16.95;;;15.00;99.90;;;;;;4975446;28;20641;-75
2021/09/19 05:45:05;;;;;;;24.30;18.63;;;15.10;99.90;;;;;;4975342;28;20166;-75
2021/09/19 05:47:30;;;;;;;27.83;20.20;;;15.30;99.90;;;;;;4973717;28;20617;-75
2021/09/19 05:49:56;;;;;;;25.63;20.20;;;15.20;99.90;;;;;;4975426;28;20201;-76
2021/09/19 05:52:21;;;;;;;27.40;19.50;;;15.10;99.90;;;;;;4974986;28;20170;-76
2021/09/19 05:54:47;;;;;;;31.90;21.48;;;15.10;99.90;;;;;;4974978;28;20228;-76
2021/09/19 05:57:13;;;;;;;27.73;19.90;;;15.00;99.90;;;;;;4974554;28;20170;-76
2021/09/19 05:59:38;;;;;;;27.10;19.70;;;14.90;99.90;;;;;;4975133;28;20220;-78
2021/09/19 06:02:04;;;;;;;23.10;18.02;;;15.00;99.90;;;;;;4974690;28;20253;-78
2021/09/19 06:04:29;;;;;;;23.80;18.73;;;15.10;99.90;;;;;;4975216;28;20170;-76
2021/09/19 06:06:55;;;;;;;31.73;19.60;;;15.10;99.90;;;;;;4975006;28;20185;-75
2021/09/19 06:09:20;;;;;;;22.40;18.35;;;15.00;99.90;;;;;;4974875;28;20170;-76
2021/09/19 06:11:46;;;;;;;24.63;18.00;;;14.80;99.90;;;;;;4974966;28;20186;-90
2021/09/19 06:14:12;;;;;;;27.80;18.67;;;14.80;99.90;;;;;;4975480;28;20220;-84
2021/09/19 06:16:38;;;;;;;26.67;18.40;;;15.00;99.90;;;;;;4974723;28;20309;-76
2021/09/19 06:19:04;;;;;;;27.50;18.83;;;14.90;99.90;;;;;;4975042;28;20222;-76
2021/09/19 06:21:30;;;;;;;24.75;18.20;;;14.90;99.90;;;;;;4975407;28;20194;-77
2021/09/19 06:23:56;;;;;;;27.05;20.08;;;14.90;99.90;;;;;;4974419;28;20170;-78
2021/09/19 06:26:22;;;;;;;21.35;17.88;;;15.00;99.90;;;;;;4978571;28;20170;-77
2021/09/19 06:28:48;;;;;;;22.33;18.38;;;15.00;99.90;;;;;;4975113;28;20649;-77
2021/09/19 06:31:14;;;;;;;28.10;19.27;;;15.00;99.90;;;;;;4973750;28;20200;-75
2021/09/19 06:33:41;;;;;;;25.70;19.10;;;15.10;99.90;;;;;;4973950;28;20201;-77
2021/09/19 06:36:06;;;;;;;26.70;19.55;;;15.00;99.90;;;;;;4973533;28;20174;-77
2021/09/19 06:38:32;;;;;;;35.55;20.00;;;15.00;99.90;;;;;;4974207;28;20221;-79
2021/09/19 06:40:58;;;;;;;23.15;18.27;;;14.90;99.90;;;;;;4973704;28;20276;-77
2021/09/19 06:43:23;;;;;;;30.83;19.35;;;14.90;99.90;;;;;;4973509;28;20596;-79
2021/09/19 06:45:49;;;;;;;27.35;19.50;;;15.00;99.90;;;;;;4973351;28;20181;-77
2021/09/19 06:48:15;;;;;;;28.30;19.08;;;15.10;99.90;;;;;;4973654;28;20510;-77
2021/09/19 06:50:40;;;;;;;25.95;19.05;;;15.20;99.90;;;;;;4973218;28;20204;-78
2021/09/19 06:53:06;;;;;;;27.15;19.08;;;15.30;99.90;;;;;;4972968;28;20213;-78
2021/09/19 06:55:32;;;;;;;24.20;18.45;;;15.40;99.90;;;;;;4973365;28;20527;-82
2021/09/19 06:57:58;;;;;;;21.65;17.98;;;15.30;99.90;;;;;;4973642;28;20174;-78
2021/09/19 07:00:24;;;;;;;34.08;18.52;;;15.20;99.90;;;;;;4973604;28;20177;-79
2021/09/19 07:02:50;;;;;;;26.48;17.50;;;15.20;99.90;;;;;;4973772;28;20232;-81
2021/09/19 07:05:16;;;;;;;29.95;18.25;;;15.30;99.90;;;;;;4973844;28;20217;-78
2021/09/19 07:07:42;;;;;;;24.08;18.42;;;15.40;99.90;;;;;;4974134;28;20173;-77
2021/09/19 07:10:08;;;;;;;24.05;17.92;;;15.80;99.90;;;;;;4974335;28;20166;-80
2021/09/19 07:12:33;;;;;;;21.77;17.98;;;15.80;99.90;;;;;;4974743;28;20170;-86
2021/09/19 07:14:59;;;;;;;25.92;19.02;;;15.70;99.90;;;;;;4974702;28;20561;-81
2021/09/19 07:17:25;;;;;;;25.10;19.65;;;15.70;99.90;;;;;;4977950;28;20173;-83
2021/09/19 07:19:52;;;;;;;33.17;19.23;;;15.60;99.90;;;;;;4973542;28;20174;-79
2021/09/19 07:22:17;;;;;;;27.77;19.17;;;15.60;99.90;;;;;;4990609;28;20241;-80
2021/09/19 07:24:43;;;;;;;22.52;17.90;;;15.80;99.90;;;;;;4993981;28;20174;-83
2021/09/19 07:27:09;;;;;;;24.75;17.45;;;16.00;99.90;;;;;;4984611;28;20177;-80
2021/09/19 07:29:35;;;;;;;23.38;16.63;;;15.90;99.90;;;;;;4975540;28;20170;-79
2021/09/19 07:32:02;;;;;;;25.52;19.88;;;15.90;99.90;;;;;;4974722;28;20194;-81
2021/09/19 07:34:30;;;;;;;21.98;18.17;;;15.90;99.90;;;;;;4959948;28;20682;-82
2021/09/19 07:36:56;;;;;;;21.98;17.83;;;16.00;99.90;;;;;;4956998;28;20179;-83
2021/09/19 07:39:22;;;;;;;25.58;18.58;;;15.90;99.90;;;;;;4958268;29;20170;-78
2021/09/19 07:41:53;;;;;;;23.65;17.10;;;16.00;99.90;;;;;;4956204;28;20195;-79
2021/09/19 07:44:22;;;;;;;29.15;18.33;;;16.00;99.90;;;;;;4955959;29;20678;-78
2021/09/19 07:46:51;;;;;;;22.92;17.95;;;16.20;99.90;;;;;;4957678;29;20171;-78
2021/09/19 07:49:18;;;;;;;26.33;18.45;;;16.30;99.90;;;;;;4956273;29;20173;-77
2021/09/19 07:51:44;;;;;;;20.10;17.85;;;16.10;99.90;;;;;;4956936;28;20265;-78
2021/09/19 07:54:10;;;;;;;22.05;18.50;;;15.80;99.90;;;;;;4957003;28;20289;-78
2021/09/19 07:56:36;;;;;;;28.70;18.42;;;16.00;99.90;;;;;;4957439;29;20167;-82
2021/09/19 07:59:01;;;;;;;20.65;18.00;;;16.10;99.90;;;;;;4957232;29;21020;-78
2021/09/19 08:01:27;;;;;;;21.42;18.45;;;16.10;99.90;;;;;;4956761;28;20213;-78
2021/09/19 08:03:53;;;;;;;25.65;18.48;;;16.20;99.90;;;;;;4957031;29;20210;-77
2021/09/19 08:06:22;;;;;;;25.67;18.63;;;16.30;99.90;;;;;;4956934;29;20687;-78
2021/09/19 08:08:48;;;;;;;24.00;17.85;;;16.30;99.90;;;;;;4957131;29;20170;-81
2021/09/19 08:11:13;;;;;;;28.85;17.83;;;16.50;99.90;;;;;;4955685;28;20191;-78
2021/09/19 08:13:39;;;;;;;23.48;17.42;;;16.60;99.90;;;;;;4957059;29;20233;-78
2021/09/19 08:16:05;;;;;;;22.67;16.10;;;16.80;99.90;;;;;;4956503;29;20211;-79
2021/09/19 08:18:31;;;;;;;19.30;16.00;;;16.90;99.90;;;;;;4956787;28;20515;-88
2021/09/19 08:20:56;;;;;;;19.45;16.58;;;17.20;99.90;;;;;;4957085;28;20198;-79
2021/09/19 08:23:22;;;;;;;24.88;18.50;;;17.40;99.90;;;;;;4956864;29;20174;-80
2021/09/19 08:25:48;;;;;;;18.15;16.25;;;17.50;99.90;;;;;;4955433;28;20171;-78
2021/09/19 08:28:13;;;;;;;18.60;15.60;;;17.40;99.90;;;;;;4956398;29;20650;-79
2021/09/19 08:30:39;;;;;;;18.05;16.10;;;17.40;99.90;;;;;;4956551;28;20216;-78
2021/09/19 08:33:05;;;;;;;20.83;16.15;;;17.40;99.90;;;;;;4956677;29;20190;-79
2021/09/19 08:35:31;;;;;;;22.10;15.15;;;17.60;99.90;;;;;;4956703;29;20171;-79
2021/09/19 08:37:56;;;;;;;17.42;14.45;;;17.80;99.90;;;;;;4956621;29;20258;-79
2021/09/19 08:40:22;;;;;;;17.00;15.07;;;17.90;99.90;;;;;;4956458;28;20741;-79
2021/09/19 08:42:54;;;;;;;19.10;15.80;;;18.10;99.90;;;;;;4956420;29;20225;-78
2021/09/19 08:45:20;;;;;;;17.48;14.65;;;18.20;99.90;;;;;;4956338;29;20670;-78
2021/09/19 08:47:45;;;;;;;17.40;14.80;;;18.30;99.90;;;;;;4954353;28;20182;-78
2021/09/19 08:50:11;;;;;;;16.88;14.73;;;18.20;99.90;;;;;;4956154;28;20173;-78
2021/09/19 08:52:38;;;;;;;16.48;14.35;;;18.20;99.90;;;;;;4956102;29;20186;-77
2021/09/19 08:55:05;;;;;;;15.40;13.80;;;18.20;99.90;;;;;;4955808;29;20173;-77
2021/09/19 08:57:31;;;;;;;16.45;14.80;;;18.20;99.90;;;;;;4955874;29;20234;-78
2021/09/19 09:00:05;;;;;;;16.60;14.45;;;18.30;99.90;;;;;;4956479;28;20186;-80
2021/09/19 09:02:47;;;;;;;19.63;14.73;;;18.30;99.90;;;;;;4956700;28;20170;-79
2021/09/19 09:05:20;;;;;;;17.63;15.05;;;18.70;99.90;;;;;;4956250;29;20249;-80
2021/09/19 09:07:46;;;;;;;15.52;14.00;;;18.90;99.90;;;;;;4955898;28;20674;-80
2021/09/19 09:10:12;;;;;;;16.55;14.82;;;18.90;99.90;;;;;;4955762;28;20174;-79
2021/09/19 09:12:37;;;;;;;16.42;14.73;;;19.10;99.90;;;;;;4955777;29;20525;-79
2021/09/19 09:15:05;;;;;;;16.65;14.95;;;19.20;99.90;;;;;;4956161;28;20587;-79
2021/09/19 09:17:31;;;;;;;16.55;14.27;;;19.20;99.90;;;;;;4955588;28;20202;-76
2021/09/19 09:20:00;;;;;;;17.10;13.90;;;19.10;99.90;;;;;;4955183;28;20578;-76
2021/09/19 09:22:29;;;;;;;15.15;13.65;;;19.10;99.90;;;;;;4955286;29;20698;-77
2021/09/19 09:25:19;;;;;;;15.15;13.70;;;19.30;99.90;;;;;;4955277;29;20530;-79
2021/09/19 09:27:47;;;;;;;18.95;14.20;;;19.40;99.90;;;;;;4954652;28;20594;-79
2021/09/19 09:30:17;;;;;;;15.65;14.05;;;19.50;99.90;;;;;;4955883;28;20627;-80
2021/09/19 09:33:03;;;;;;;14.60;12.80;;;19.80;99.90;;;;;;4956081;29;20190;-80
2021/09/19 09:35:33;;;;;;;15.20;13.52;;;19.90;99.90;;;;;;4955881;29;20170;-80
2021/09/19 09:37:59;;;;;;;14.73;12.80;;;20.10;99.90;;;;;;4956869;29;20173;-85
2021/09/19 09:40:26;;;;;;;13.38;11.98;;;20.40;99.90;;;;;;4954165;28;20194;-81
2021/09/19 09:43:12;;;;;;;14.13;12.73;;;20.40;99.90;;;;;;4954331;29;20643;-80
2021/09/19 09:45:40;;;;;;;15.77;12.30;;;20.50;99.90;;;;;;4953240;28;20182;-79
2021/09/19 09:48:33;;;;;;;12.75;11.48;;;20.50;99.90;;;;;;4954713;29;20538;-79
2021/09/19 09:51:02;;;;;;;11.85;10.70;;;20.70;99.90;;;;;;4952558;28;20190;-79
2021/09/19 09:53:28;;;;;;;13.45;11.90;;;20.50;99.90;;;;;;4952425;29;20206;-81
2021/09/19 09:55:56;;;;;;;11.32;10.32;;;20.60;99.90;;;;;;4953923;28;20174;-80
2021/09/19 09:58:22;;;;;;;12.27;10.85;;;20.90;99.90;;;;;;4954802;29;20163;-79
2021/09/19 10:00:54;;;;;;;14.10;11.15;;;20.90;99.90;;;;;;4952958;28;20208;-80
2021/09/19 10:03:20;;;;;;;12.00;10.77;;;21.20;99.90;;;;;;4955254;29;20209;-81
2021/09/19 10:05:46;;;;;;;11.65;10.50;;;21.30;99.90;;;;;;4953436;29;20285;-80
2021/09/19 10:08:11;;;;;;;11.68;10.60;;;21.40;99.90;;;;;;4955621;29;20324;-81
2021/09/19 10:10:40;;;;;;;11.88;10.15;;;21.30;99.90;;;;;;4955147;28;20746;-80
2021/09/19 10:13:07;;;;;;;11.38;10.13;;;21.40;99.90;;;;;;4957049;29;20602;-81
2021/09/19 10:15:33;;;;;;;10.82;9.82;;;21.50;99.90;;;;;;4959930;29;20179;-79
2021/09/19 10:17:59;;;;;;;11.25;10.25;;;21.60;99.90;;;;;;4960440;29;20367;-79
2021/09/19 10:20:30;;;;;;;17.10;9.40;;;21.90;99.90;;;;;;4962249;28;20186;-79
2021/09/19 10:23:16;;;;;;;9.60;8.77;;;22.20;99.90;;;;;;4954584;29;20185;-80
2021/09/19 10:26:08;;;;;;;9.52;8.73;;;22.00;99.90;;;;;;4955401;28;20162;-81
2021/09/19 10:28:42;;;;;;;9.20;8.50;;;22.10;99.90;;;;;;4953686;29;20274;-80
2021/09/19 10:31:08;;;;;;;9.23;8.30;;;22.30;99.90;;;;;;4953330;28;20236;-79
2021/09/19 10:33:47;;;;;;;8.82;8.10;;;22.30;99.90;;;;;;4954858;28;20230;-79
2021/09/19 10:36:34;;;;;;;8.65;8.02;;;22.00;99.90;;;;;;4954572;28;20206;-79
2021/09/19 10:39:31;;;;;;;9.88;8.98;;;22.20;99.90;;;;;;4954859;28;20261;-80
2021/09/19 10:42:25;;;;;;;9.23;8.32;;;22.30;99.90;;;;;;4946092;29;20210;-81
2021/09/19 10:44:53;;;;;;;8.00;7.40;;;22.40;99.90;;;;;;4953295;29;20269;-80
2021/09/19 10:47:25;;;;;;;10.20;7.72;;;22.50;99.90;;;;;;4954476;28;20174;-80
2021/09/19 10:50:31;;;;;;;7.82;7.00;;;22.90;99.90;;;;;;4954573;28;20254;-80
2021/09/19 10:52:59;;;;;;;8.00;7.07;;;22.90;99.90;;;;;;4954281;28;20336;-79
2021/09/19 10:55:33;;;;;;;7.25;6.65;;;22.60;99.90;;;;;;4953188;28;20182;-80
2021/09/19 10:58:02;;;;;;;7.35;6.75;;;22.60;99.90;;;;;;4954820;28;20189;-80
2021/09/19 11:00:33;;;;;;;14.45;6.60;;;22.60;99.90;;;;;;4953811;28;20186;-82
2021/09/19 11:02:59;;;;;;;10.57;7.53;;;22.60;99.90;;;;;;4953129;28;20174;-80
2021/09/19 11:05:32;;;;;;;7.57;6.85;;;22.90;99.90;;;;;;4954319;28;20183;-80
2021/09/19 11:08:06;;;;;;;8.50;6.65;;;23.00;99.90;;;;;;4953058;29;20178;-80
2021/09/19 11:10:45;;;;;;;7.05;6.45;;;23.20;99.90;;;;;;4954355;28;20209;-82
2021/09/19 11:13:27;;;;;;;7.53;6.78;;;23.30;99.90;;;;;;4956423;28;20214;-83
2021/09/19 11:16:02;;;;;;;7.32;6.72;;;23.40;99.90;;;;;;4956408;28;20226;-81
2021/09/19 11:18:34;;;;;;;7.35;6.55;;;23.60;99.90;;;;;;4959744;29;20185;-80
2021/09/19 11:21:31;;;;;;;6.60;6.10;;;23.60;99.90;;;;;;4958679;28;20270;-80
2021/09/19 11:24:06;;;;;;;6.88;6.25;;;23.60;99.90;;;;;;4960703;29;20256;-80
2021/09/19 11:26:39;;;;;;;8.32;7.18;;;23.90;99.90;;;;;;4957602;28;20166;-83
2021/09/19 11:29:13;;;;;;;7.28;6.57;;;23.80;99.90;;;;;;4957451;28;20170;-81
2021/09/19 11:31:41;;;;;;;7.78;7.18;;;23.70;99.90;;;;;;4957471;28;20189;-80
2021/09/19 11:34:16;;;;;;;7.40;6.53;;;23.60;99.90;;;;;;4957387;28;20228;-80
2021/09/19 11:36:47;;;;;;;6.97;6.28;;;23.60;99.90;;;;;;4957585;28;20170;-80
2021/09/19 11:39:14;;;;;;;6.78;6.18;;;23.60;99.90;;;;;;4956059;29;20214;-81
2021/09/19 11:41:42;;;;;;;9.43;6.63;;;23.60;99.90;;;;;;4957099;28;20556;-80
2021/09/19 11:44:11;;;;;;;7.40;6.43;;;23.60;99.90;;;;;;4957228;28;20228;-80
2021/09/19 11:46:42;;;;;;;6.80;6.30;;;23.50;99.90;;;;;;4957370;28;20202;-80
2021/09/19 11:49:08;;;;;;;6.75;6.15;;;23.60;99.90;;;;;;4957849;28;20536;-81
2021/09/19 11:51:33;;;;;;;6.93;6.22;;;23.60;99.90;;;;;;4957264;28;20214;-81
2021/09/19 11:53:59;;;;;;;6.60;5.63;;;23.50;99.90;;;;;;4956276;28;20261;-79
2021/09/19 11:56:27;;;;;;;6.30;5.80;;;23.60;99.90;;;;;;4957754;28;20185;-79
2021/09/19 11:58:53;;;;;;;6.00;5.50;;;23.30;99.90;;;;;;4957104;28;20250;-80
2021/09/19 12:01:26;;;;;;;5.22;4.68;;;23.40;99.90;;;;;;4956597;28;20270;-82
2021/09/19 12:04:01;;;;;;;6.05;5.55;;;23.50;99.90;;;;;;4957117;28;20627;-80
2021/09/19 12:06:28;;;;;;;5.25;4.75;;;23.50;99.90;;;;;;4955329;29;20204;-79
2021/09/19 12:08:53;;;;;;;10.20;4.93;;;23.60;99.90;;;;;;4957338;28;20174;-80
2021/09/19 12:11:19;;;;;;;7.00;5.80;;;23.60;99.90;;;;;;4957382;28;20238;-83
2021/09/19 12:13:49;;;;;;;4.80;4.40;;;23.30;99.90;;;;;;4956673;29;20246;-84
2021/09/19 12:16:22;;;;;;;5.65;5.18;;;23.10;99.90;;;;;;4955905;29;20209;-84
2021/09/19 12:18:50;;;;;;;8.13;6.50;;;23.10;99.90;;;;;;4957575;28;20250;-85
2021/09/19 12:21:25;;;;;;;5.95;5.40;;;23.10;99.90;;;;;;4956072;28;20190;-86
2021/09/19 12:23:56;;;;;;;5.13;4.53;;;23.00;99.90;;;;;;4956253;28;20253;-84
2021/09/19 12:26:32;;;;;;;5.03;4.63;;;23.20;99.90;;;;;;4956750;29;20166;-84
2021/09/19 12:29:03;;;;;;;6.18;5.57;;;23.30;99.90;;;;;;4957282;28;20166;-85
2021/09/19 12:31:47;;;;;;;5.68;4.28;;;23.10;99.90;;;;;;4956168;28;20183;-84
2021/09/19 12:34:15;;;;;;;4.75;4.35;;;23.10;99.90;;;;;;4958139;29;20210;-85
2021/09/19 12:36:42;;;;;;;4.32;3.97;;;23.30;99.90;;;;;;4957366;29;20163;-84